Brunswick, GA

8:01 PM EST on November 22, 2014 (GMT -0500)
RAWS STERLING GA US | Change Station
CLOSE
Current Station
Personal Weather Station
Location: Brunswick, GA
Elevation: 13 ft
Nearby Weather Stations
Active Advisory: Coastal Hazard Statement

Elev 13 ft 31.26 °N, 81.61 °W | Updated 57 minutes ago

Overcast
Overcast
60 °F
Feels Like 60 °F
N
3
Wind Variable Wind from ENE
Gusts 8.0 mph

Today
High -- | Low -- °F
--% Chance of Precip.
Yesterday
High -- | Low -- °F
Precip. -- in
6:59 AM 5:25 PM
New Moon, 0% visible
Pressure 30.24 in
Visibility 10.0 miles
Clouds Overcast 4900 ft
Dew Point 59 °F
Humidity 97%
Rainfall 0.07 in
Snow Depth Not available.
UV 0 out of 12
Pollen 2.30 out of 12
Air Quality Not available.
Flu Activity Not available.
METAR KSSI 230053Z AUTO 04007KT 10SM OVC049 16/16 A3024 RMK AO2 RAB2354E36 SLP240 P0001 T01610156

More Conditions Fewer Conditions

Pressure 30.24 in
Visibility 10.0 miles
Clouds Overcast 4900 ft
Dew Point 59 °F
Humidity 97%
Rainfall 0.07 in
Snow Depth Not available.
UV 0 out of 12
Pollen 2.30 out of 12
Air Quality Not available.
Flu Activity Not available.
METAR KSSI 230053Z AUTO 04007KT 10SM OVC049 16/16 A3024 RMK AO2 RAB2354E36 SLP240 P0001 T01610156

More Conditions Fewer Conditions

10-Day Weather Forecast

Almanac

Astronomy

Nov. 22, 2014 Rise Set
Actual Time
Civil Twilight
Nautical Twilight
Astronomical Twilight
Moon
Length of Visible Light
Length of Day
Tomorrow will be .
, % of the Moon is Illuminated

Today's Extremes

State Highs State Lows

Community

WunderPhotos

Upload Photos

1,772,949 photos uploaded!

WunderBlogs® & News

Nearby

Air Quality

  Air Quality AQ Index Pollutant
Not available.

Snow Depth

Station Depth Elevation

Earthquake Activity

City Distance Mag. Time & Date
Minimum magnitude displayed is 2.5.

Coastal Water Temperatures

Place Temperature

Nearby Weather Stations